Time;durP1;ratioP1;P1;durP2;ratioP2;P2;SDS_P1;SDS_P2;PMS_P1;PMS_P2;Temp;Humidity;BMP_temperature;BMP_pressure;BME280_temperature;BME280_humidity;BME280_pressure;Samples;Min_cycle;Max_cycle;Signal;HPM_P1;HPM_P2
2022/04/28 00:02:12;;;;;;;17.80;7.97;;;;;;;-146.64;100.00;51063.88;4993608;28;20388;-78
2022/04/28 00:04:38;;;;;;;14.90;7.75;;;;;;;-146.64;100.00;48609.59;5017384;28;20076;-76
2022/04/28 00:07:03;;;;;;;15.55;8.27;;;;;;;-146.64;100.00;53201.31;4994831;28;20436;-77
2022/04/28 00:09:30;;;;;;;14.13;7.97;;;;;;;-146.64;100.00;47906.03;5010880;28;20026;-76
2022/04/28 00:11:55;;;;;;;24.13;9.40;;;;;;;-146.64;100.00;47625.03;4994713;28;20729;-78
2022/04/28 00:14:21;;;;;;;18.77;7.85;;;;;;;-146.64;100.00;52720.75;5007564;28;20059;-76
2022/04/28 00:16:46;;;;;;;19.15;8.27;;;;;;;-146.64;100.00;53727.13;5009273;28;20029;-77
2022/04/28 00:19:12;;;;;;;14.05;7.90;;;;;;;-146.64;100.00;52531.84;4976995;28;20378;-76
2022/04/28 00:21:38;;;;;;;18.98;7.65;;;;;;;-146.64;100.00;50191.56;4988351;28;20026;-78
2022/04/28 00:24:03;;;;;;;24.10;9.30;;;;;;;-146.64;100.00;52833.72;5012749;28;20416;-76
2022/04/28 00:26:29;;;;;;;27.20;8.90;;;;;;;-146.64;100.00;52854.25;4997595;28;20814;-76
2022/04/28 00:28:54;;;;;;;15.40;8.32;;;;;;;-146.64;100.00;53340.97;5010416;28;20448;-76
2022/04/28 00:31:20;;;;;;;20.38;8.80;;;;;;;-146.64;100.00;58199.34;4994874;28;20034;-76
2022/04/28 00:33:48;;;;;;;18.55;8.70;;;;;;;-146.64;100.00;57672.94;5016182;28;20026;-77
2022/04/28 00:36:14;;;;;;;21.42;8.60;;;;;;;-146.64;100.00;58199.34;5017103;28;20049;-77
2022/04/28 00:38:39;;;;;;;16.27;9.20;;;;;;;-146.64;100.00;56620.34;4994585;28;20381;-76
2022/04/28 00:41:05;;;;;;;27.00;9.07;;;;;;;-146.64;100.00;59778.97;4977399;28;20553;-76
2022/04/28 00:43:31;;;;;;;26.63;10.68;;;;;;;-146.64;100.00;61359.25;4997105;28;20108;-76
2022/04/28 00:45:57;;;;;;;19.48;9.45;;;;;;;-146.64;100.00;63467.22;4993862;28;20057;-76
2022/04/28 00:51:08;;;;;;;16.67;10.60;;;;;;;-146.64;100.00;65576.34;5003176;28;20044;-76
2022/04/28 00:53:48;;;;;;;26.67;10.57;;;;;;;-146.64;100.00;69533.94;5000885;28;20049;-76
2022/04/28 00:56:15;;;;;;;24.88;10.98;;;;;;;-146.64;100.00;70325.94;4996105;28;20030;-78
2022/04/28 00:58:41;;;;;;;16.63;10.20;;;;;;;-146.64;100.00;71382.16;4988684;28;20018;-76
2022/04/28 01:01:06;;;;;;;27.77;12.05;;;;;;;-146.64;100.00;72174.50;4968326;28;20049;-78
2022/04/28 01:03:32;;;;;;;34.38;12.38;;;;;;;-146.64;100.00;70061.91;4989570;28;20530;-79
2022/04/28 01:05:58;;;;;;;24.55;11.88;;;;;;;-146.64;100.00;74023.97;5016984;28;20128;-78
2022/04/28 01:08:24;;;;;;;25.77;12.07;;;;;;;-146.64;100.00;71910.38;5003080;28;20029;-79
2022/04/28 01:10:51;;;;;;;22.83;11.88;;;;;;;-146.64;100.00;75874.25;5008879;28;20065;-79
2022/04/28 01:13:17;;;;;;;27.05;11.85;;;;;;;-146.64;100.00;76403.06;5021890;28;20022;-78
2022/04/28 01:15:43;;;;;;;21.92;11.68;;;;;;;-146.64;100.00;77989.94;5005569;28;20068;-79
2022/04/28 01:18:10;;;;;;;24.63;11.27;;;;;;;-146.64;100.00;77725.41;5016523;28;20094;-78
2022/04/28 01:20:36;;;;;;;19.17;10.82;;;;;;;-146.64;100.00;75081.16;4993330;28;20515;-79
2022/04/28 01:23:03;;;;;;;21.25;10.48;;;;;;;-146.64;100.00;76403.06;5025073;28;20026;-78
2022/04/28 01:25:30;;;;;;;25.15;11.32;;;;;;;-146.64;100.00;78519.03;4996910;28;20032;-78
2022/04/28 01:27:56;;;;;;;21.38;11.35;;;;;;;-146.64;100.00;78519.03;4985800;28;20046;-77
2022/04/28 01:30:22;;;;;;;23.38;10.93;;;;;;;-146.64;100.00;77725.41;4994444;28;20044;-78
2022/04/28 01:32:47;;;;;;;21.23;11.50;;;;;;;-146.64;100.00;78519.03;5023501;28;20460;-78
2022/04/28 01:35:13;;;;;;;17.83;10.05;;;;;;;-146.64;100.00;79577.41;5012540;28;20061;-78
2022/04/28 01:37:38;;;;;;;22.92;11.25;;;;;;;-146.64;100.00;79048.19;5002222;28;20051;-79
2022/04/28 01:40:06;;;;;;;22.15;10.80;;;;;;;-146.64;100.00;79048.19;4994832;28;20041;-79
2022/04/28 01:42:32;;;;;;;23.00;9.88;;;;;;;-146.64;100.00;76403.06;4978834;28;20032;-78
2022/04/28 01:44:59;;;;;;;22.17;10.48;;;;;;;-146.64;100.00;76931.94;4994945;28;20029;-78
2022/04/28 01:47:25;;;;;;;18.75;11.00;;;;;;;-146.64;100.00;77196.41;5006923;28;20068;-78
2022/04/28 01:49:50;;;;;;;21.50;10.52;;;;;;;-146.64;100.00;79312.78;4999548;28;20065;-78
2022/04/28 01:55:02;;;;;;;20.33;10.13;;;;;;;-146.64;100.00;77989.94;5017875;28;20041;-78
2022/04/28 01:57:31;;;;;;;30.98;11.95;;;;;;;-146.64;100.00;77196.41;5001771;28;20026;-79
2022/04/28 02:00:00;;;;;;;21.60;11.30;;;;;;;-146.64;100.00;78519.03;5012919;28;20041;-79
2022/04/28 02:02:26;;;;;;;22.60;10.93;;;;;;;-146.64;100.00;79048.19;5009546;28;20564;-78
2022/04/28 02:04:52;;;;;;;22.10;10.10;;;;;;;-146.64;100.00;79577.41;5006901;28;20105;-79
2022/04/28 02:07:18;;;;;;;24.00;11.07;;;;;;;-146.64;100.00;81430.28;5014324;28;20072;-78
2022/04/28 02:09:45;;;;;;;23.77;10.75;;;;;;;-146.64;100.00;82489.44;5016793;28;20555;-79
2022/04/28 02:12:11;;;;;;;20.30;10.40;;;;;;;-146.64;100.00;83284.00;5002468;28;20119;-79
2022/04/28 02:14:37;;;;;;;19.85;10.18;;;;;;;-146.64;100.00;83019.13;4982772;28;20029;-79
2022/04/28 02:17:04;;;;;;;18.60;9.82;;;;;;;-146.64;100.00;82489.44;4992619;28;20442;-79
2022/04/28 02:19:30;;;;;;;24.30;10.10;;;;;;;-146.64;100.00;81959.81;5014593;28;20041;-79
2022/04/28 02:21:56;;;;;;;25.33;11.33;;;;;;;-146.64;100.00;83019.13;5019638;28;20038;-79
2022/04/28 02:24:21;;;;;;;23.35;9.93;;;;;;;-146.64;100.00;83019.13;5013999;28;20474;-79
2022/04/28 02:26:48;;;;;;;25.50;9.80;;;;;;;-146.64;100.00;84608.59;5008879;28;20041;-79
2022/04/28 02:29:14;;;;;;;;;;;;;;;-146.64;100.00;85138.56;5034855;28;20045;-79
2022/04/28 02:31:39;;;;;;;21.58;10.77;;;;;;;-146.64;100.00;86994.00;5007354;28;19921;-80
2022/04/28 02:34:05;;;;;;;17.75;10.48;;;;;;;-146.64;100.00;86728.88;5012220;28;20520;-80
2022/04/28 02:36:30;;;;;;;18.50;9.52;;;;;;;-146.64;100.00;86994.00;4989720;28;20034;-80
2022/04/28 02:38:57;;;;;;;19.35;9.60;;;;;;;-146.64;100.00;88319.81;4997232;28;20045;-80
2022/04/28 02:41:23;;;;;;;;;;;;;;;-146.64;100.00;89911.41;4998818;28;20080;-80
2022/04/28 02:43:50;;;;;;;18.17;8.98;;;;;;;-146.64;100.00;89911.41;5025810;28;20039;-80
2022/04/28 02:46:15;;;;;;;16.17;10.25;;;;;;;-146.64;100.00;89380.81;4988745;28;20073;-79
2022/04/28 02:48:41;;;;;;;21.67;10.27;;;;;;;-146.64;100.00;89646.09;4985883;28;20420;-79
2022/04/28 02:51:06;;;;;;;24.80;9.90;;;;;;;-146.64;100.00;90442.06;4982506;28;20034;-81
2022/04/28 02:53:33;;;;;;;23.48;9.45;;;;;;;-146.64;100.00;90972.78;5008294;28;20034;-79
2022/04/28 02:55:58;;;;;;;23.48;10.02;;;;;;;-146.64;100.00;90972.78;4987513;28;20394;-81
2022/04/28 02:58:23;;;;;;;16.73;10.40;;;;;;;-146.64;100.00;91238.19;5003079;28;20102;-79
2022/04/28 03:00:49;;;;;;;25.60;10.43;;;;;;;-146.64;100.00;91238.19;4992299;28;20056;-80
2022/04/28 03:03:14;;;;;;;24.05;8.95;;;;;;;-146.64;100.00;90442.06;5033980;28;20044;-80
2022/04/28 03:11:09;;;;;;;17.55;9.90;;;;;;;-146.64;100.00;89646.09;5002706;28;20453;-80
2022/04/28 03:13:34;;;;;;;18.73;9.00;;;;;;;-146.64;100.00;90176.72;5011033;28;20487;-79
2022/04/28 03:16:00;;;;;;;18.02;9.25;;;;;;;-146.64;100.00;90176.72;5011458;28;20101;-80
2022/04/28 03:18:27;;;;;;;22.63;8.82;;;;;;;-146.64;100.00;89646.09;5005471;28;20076;-80
2022/04/28 03:20:53;;;;;;;;;;;;;;;-146.64;100.00;87789.44;5008781;28;20438;-79
2022/04/28 03:23:18;;;;;;;20.52;9.38;;;;;;;-146.64;100.00;89115.53;5028699;28;19932;-79
2022/04/28 03:25:44;;;;;;;20.02;8.82;;;;;;;-146.64;100.00;88850.28;5007717;28;20038;-78
2022/04/28 03:28:09;;;;;;;19.20;8.45;;;;;;;-146.64;100.00;88850.28;5011985;28;20041;-78
2022/04/28 03:30:35;;;;;;;24.58;8.95;;;;;;;-146.64;100.00;89646.09;5012545;28;20072;-79
2022/04/28 03:33:01;;;;;;;22.85;9.32;;;;;;;-146.64;100.00;90442.06;5015620;28;20017;-78
2022/04/28 03:35:26;;;;;;;17.65;9.23;;;;;;;-146.64;100.00;88850.28;5016886;28;20476;-79
2022/04/28 03:37:52;;;;;;;14.48;7.82;;;;;;;-146.64;100.00;89115.53;4998981;28;20021;-80
2022/04/28 03:40:19;;;;;;;27.30;9.45;;;;;;;-146.64;100.00;87524.28;5029141;28;20025;-81
2022/04/28 03:42:47;;;;;;;19.90;8.18;;;;;;;-146.64;100.00;88850.28;5004755;28;20026;-79
2022/04/28 03:45:13;;;;;;;23.25;8.18;;;;;;;-146.64;100.00;89646.09;5014213;28;20030;-79
2022/04/28 03:47:41;;;;;;;19.23;9.10;;;;;;;-146.64;100.00;89911.41;4993197;28;20442;-78
2022/04/28 03:50:07;;;;;;;13.63;9.23;;;;;;;-146.64;100.00;90176.72;4981143;28;20393;-79
2022/04/28 03:52:33;;;;;;;17.20;8.93;;;;;;;-146.64;100.00;87524.28;5016299;28;20550;-79
2022/04/28 03:54:58;;;;;;;24.73;8.50;;;;;;;-146.64;100.00;88585.03;4997715;28;20105;-79
2022/04/28 03:57:23;;;;;;;20.10;9.05;;;;;;;-146.64;100.00;88850.28;5009886;28;20061;-79
2022/04/28 03:59:50;;;;;;;25.75;9.55;;;;;;;-146.64;100.00;89115.53;5020199;28;20087;-79
2022/04/28 04:02:17;;;;;;;16.83;8.68;;;;;;;-146.64;100.00;90707.41;4996432;28;20034;-78
2022/04/28 04:04:44;;;;;;;18.80;8.82;;;;;;;-146.64;100.00;90442.06;5027720;28;20495;-79
2022/04/28 04:07:13;;;;;;;17.27;7.88;;;;;;;-146.64;100.00;89646.09;4997738;28;20033;-79
2022/04/28 04:09:39;;;;;;;19.42;9.85;;;;;;;-146.64;100.00;89911.41;5019642;28;20065;-78
2022/04/28 04:12:08;;;;;;;26.70;9.52;;;;;;;-146.64;100.00;89646.09;4999168;28;20040;-79
2022/04/28 04:14:34;;;;;;;29.08;9.65;;;;;;;-146.64;100.00;89646.09;5013977;28;20054;-77
2022/04/28 04:17:00;;;;;;;16.60;9.02;;;;;;;-146.64;100.00;90176.72;4996126;28;20080;-79
2022/04/28 04:19:26;;;;;;;16.13;9.32;;;;;;;-146.64;100.00;89380.81;5017955;28;20045;-79
2022/04/28 04:21:55;;;;;;;18.05;8.75;;;;;;;-146.64;100.00;89646.09;5016606;28;20021;-79
2022/04/28 04:24:20;;;;;;;23.45;9.32;;;;;;;-146.64;100.00;88585.03;5028584;28;20036;-78
2022/04/28 04:26:45;;;;;;;20.42;9.00;;;;;;;-146.64;100.00;88319.81;5017224;28;20029;-79
2022/04/28 04:29:12;;;;;;;20.52;9.02;;;;;;;-146.64;100.00;88054.63;5034241;28;20484;-79
2022/04/28 04:34:23;;;;;;;26.83;10.40;;;;;;;-146.64;100.00;89911.41;5033077;28;20028;-79
2022/04/28 04:36:49;;;;;;;27.58;9.23;;;;;;;-146.64;100.00;89115.53;5005473;28;20366;-78
2022/04/28 04:39:14;;;;;;;21.67;9.35;;;;;;;-146.64;100.00;88850.28;4995033;28;20094;-78
2022/04/28 04:41:40;;;;;;;21.23;9.43;;;;;;;-146.64;100.00;88319.81;4999127;28;20042;-78
2022/04/28 04:44:13;;;;;;;24.92;9.57;;;;;;;-146.64;100.00;86463.78;5017218;28;20116;-78
2022/04/28 04:46:38;;;;;;;25.20;10.05;;;;;;;-146.64;100.00;83284.00;5022296;28;20053;-78
2022/04/28 04:49:04;;;;;;;21.70;9.30;;;;;;;-146.64;100.00;82754.28;4983676;28;20046;-78
2022/04/28 04:51:29;;;;;;;24.45;9.40;;;;;;;-146.64;100.00;81165.53;5018455;28;20038;-79
2022/04/28 04:53:55;;;;;;;14.82;7.53;;;;;;;-146.64;100.00;77989.94;5015121;28;20026;-78
2022/04/28 04:56:20;;;;;;;26.25;8.80;;;;;;;-146.64;100.00;77725.41;5022688;28;20354;-77
2022/04/28 04:58:45;;;;;;;25.63;9.23;;;;;;;-146.64;100.00;75345.50;5032823;28;20025;-79
2022/04/28 05:01:11;;;;;;;19.65;8.95;;;;;;;-146.64;100.00;77196.41;5024986;28;20490;-80
2022/04/28 05:03:36;;;;;;;20.15;9.45;;;;;;;-146.64;100.00;75874.25;5013986;28;20057;-79
2022/04/28 05:06:02;;;;;;;23.40;9.10;;;;;;;-146.64;100.00;73231.22;5001922;28;20628;-79
2022/04/28 05:08:27;;;;;;;22.25;9.13;;;;;;;-146.64;100.00;70325.94;5016094;28;20030;-79
2022/04/28 05:10:52;;;;;;;20.58;8.45;;;;;;;-146.64;100.00;67422.72;4990967;28;20061;-79
2022/04/28 05:13:18;;;;;;;19.98;8.80;;;;;;;-146.64;100.00;64258.03;5008642;28;20048;-79
2022/04/28 05:15:47;;;;;;;26.63;8.77;;;;;;;-146.64;100.00;60832.41;5011653;28;20115;-79
2022/04/28 05:18:12;;;;;;;23.63;10.05;;;;;;;-146.64;100.00;56357.25;5021578;28;20497;-79
2022/04/28 05:20:37;;;;;;;24.63;9.50;;;;;;;-146.64;100.00;50058.19;5009242;28;20037;-79
2022/04/28 05:23:03;;;;;;;20.83;9.30;;;;;;;-146.64;100.00;47930.63;5011053;28;20029;-80
2022/04/28 05:25:29;;;;;;;22.42;8.95;;;;;;;-146.64;100.00;45015.09;5012101;28;20363;-79
2022/04/28 05:27:54;;;;;;;18.02;9.23;;;;;;;-146.64;100.00;43261.03;5006139;28;20030;-79
2022/04/28 05:30:20;;;;;;;24.02;8.98;;;;;;;-146.64;100.00;41790.38;4993523;28;20112;-80
2022/04/28 05:32:45;;;;;;;22.25;7.63;;;;;;;-146.64;100.00;41077.78;5002191;28;20029;-79
2022/04/28 05:35:10;;;;;;;24.70;8.05;;;;;;;-146.64;100.00;40529.09;5015739;28;20025;-80
2022/04/28 05:37:37;;;;;;;18.35;8.20;;;;;;;-146.64;100.00;40301.84;5012858;28;20088;-80
2022/04/28 05:40:03;;;;;;;23.83;8.27;;;;;;;-146.64;100.00;40011.19;4996984;28;20061;-79
2022/04/28 05:45:41;;;;;;;19.48;9.07;;;;;;;-146.64;100.00;39988.66;4998840;28;20624;-80
2022/04/28 05:47:57;;;;;;;18.80;8.30;;;;;;;-146.64;100.00;39882.22;5017933;28;20130;-80
2022/04/28 05:50:23;;;;;;;15.18;8.18;;;;;;;-146.64;100.00;39886.31;5013451;28;20461;-80
2022/04/28 05:52:48;;;;;;;19.27;7.97;;;;;;;-146.64;100.00;39841.28;4997093;28;20123;-80
2022/04/28 05:55:13;;;;;;;18.25;8.48;;;;;;;-146.64;100.00;39790.13;5008143;28;20049;-79
2022/04/28 05:57:38;;;;;;;19.70;8.50;;;;;;;-146.64;100.00;39730.75;5006215;28;20033;-80
2022/04/28 06:00:05;;;;;;;17.58;8.25;;;;;;;-146.64;100.00;39657.06;4996373;28;20081;-80
2022/04/28 06:02:31;;;;;;;17.35;7.82;;;;;;;-146.64;100.00;39622.28;4980355;28;20026;-81
2022/04/28 06:04:56;;;;;;;26.70;8.18;;;;;;;-146.64;100.00;39587.47;5027353;28;20044;-80
2022/04/28 06:07:21;;;;;;;16.08;7.70;;;;;;;-146.64;100.00;39558.81;5009169;28;20112;-79
2022/04/28 06:09:47;;;;;;;20.67;7.68;;;;;;;-146.64;100.00;39567.00;5026150;28;20538;-80
2022/04/28 06:12:12;;;;;;;21.63;7.97;;;;;;;-146.64;100.00;39591.56;5003274;28;20026;-80
2022/04/28 06:14:38;;;;;;;23.65;8.55;;;;;;;-146.64;100.00;39530.16;4996984;28;20074;-80
2022/04/28 06:17:03;;;;;;;17.35;8.40;;;;;;;-146.64;100.00;39388.94;4985477;28;20385;-80
2022/04/28 06:19:29;;;;;;;22.02;8.35;;;;;;;-146.64;100.00;39481.06;4987051;28;20111;-79
2022/04/28 06:21:54;;;;;;;16.45;8.10;;;;;;;-146.64;100.00;39468.78;5029055;28;20121;-80
2022/04/28 06:24:19;;;;;;;22.48;8.88;;;;;;;-146.64;100.00;39446.25;5018813;28;20032;-79
2022/04/28 06:26:45;;;;;;;36.22;9.85;;;;;;;-146.64;100.00;39415.56;4999861;28;20108;-80
2022/04/28 06:29:10;;;;;;;24.45;8.10;;;;;;;-146.64;100.00;39366.44;5011942;28;20052;-80
2022/04/28 06:31:35;;;;;;;21.17;7.68;;;;;;;-146.64;100.00;39235.47;5014090;28;20029;-79
2022/04/28 06:34:01;;;;;;;13.02;6.10;;;;;;;-146.64;100.00;39098.34;4999018;28;20065;-80
2022/04/28 06:36:26;;;;;;;23.03;6.50;;;;;;;-146.64;100.00;39024.66;5013833;28;20030;-80
2022/04/28 06:38:51;;;;;;;18.60;6.63;;;;;;;-146.64;100.00;38924.41;5013724;28;20041;-80
2022/04/28 06:41:17;;;;;;;14.20;6.43;;;;;;;-146.64;100.00;38883.47;5011292;28;20040;-80
2022/04/28 06:43:42;;;;;;;23.80;5.57;;;;;;;-146.64;99.78;38811.84;5011907;28;20053;-80
2022/04/28 06:46:14;;;;;;;14.30;5.60;;;;;;;-146.64;97.79;38760.69;4996388;28;20049;-80
2022/04/28 06:48:42;;;;;;;15.35;6.00;;;;;;;-146.64;95.51;38689.06;5013770;28;20453;-80
2022/04/28 06:51:08;;;;;;;14.05;5.90;;;;;;;-146.64;89.45;38695.19;5014491;28;20041;-80
2022/04/28 06:53:33;;;;;;;17.43;5.00;;;;;;;-146.64;93.26;38703.38;4999020;28;20087;-80
2022/04/28 06:55:58;;;;;;;14.37;5.40;;;;;;;-146.64;89.23;38654.28;5002158;28;20030;-79
2022/04/28 06:58:24;;;;;;;15.90;5.50;;;;;;;-146.64;87.34;38642.00;5009999;28;20029;-79
2022/04/28 07:00:49;;;;;;;10.43;4.20;;;;;;;-146.64;86.97;38705.44;5000681;28;20393;-79
2022/04/28 07:03:15;;;;;;;11.97;4.60;;;;;;;-146.64;86.86;38654.28;4997551;28;20066;-80
2022/04/28 07:05:40;;;;;;;18.33;5.07;;;;;;;-146.64;84.33;38629.72;4983322;28;20021;-79
2022/04/28 07:08:06;;;;;;;15.23;5.43;;;;;;;-146.64;82.02;38642.00;5002032;28;20026;-79
2022/04/28 07:10:32;;;;;;;16.97;5.33;;;;;;;-146.64;82.30;38650.19;5004013;28;20083;-78
2022/04/28 07:12:57;;;;;;;20.03;5.20;;;;;;;-146.64;82.74;38654.28;5010700;28;20156;-80
2022/04/28 07:15:23;;;;;;;14.00;4.73;;;;;;;-146.64;81.03;38609.25;4976976;28;20125;-80
2022/04/28 07:17:48;;;;;;;19.53;5.13;;;;;;;-146.64;80.00;38658.38;5018679;28;20118;-81
2022/04/28 07:20:13;;;;;;;15.23;4.70;;;;;;;-146.64;81.60;38609.25;5001163;28;20513;-81
2022/04/28 07:22:39;;;;;;;15.80;5.67;;;;;;;-146.64;78.83;38682.94;4984641;28;20502;-81
2022/04/28 07:25:05;;;;;;;15.55;5.00;;;;;;;-146.64;80.88;38666.56;5009313;28;20026;-81
2022/04/28 07:27:30;;;;;;;13.27;4.60;;;;;;;-146.64;78.56;38691.13;4988747;28;20474;-78
2022/04/28 07:29:56;;;;;;;15.13;4.50;;;;;;;-146.64;77.23;38711.56;5009423;28;20120;-80
2022/04/28 07:32:21;;;;;;;10.93;5.00;;;;;;;-146.64;77.97;38734.09;5007948;28;20041;-81
2022/04/28 07:34:46;;;;;;;11.17;4.67;;;;;;;-146.64;78.19;38580.63;4994452;28;20401;-76
2022/04/28 07:37:12;;;;;;;23.70;4.80;;;;;;;-146.64;75.38;38547.88;4990055;28;20030;-80
2022/04/28 07:39:37;;;;;;;15.77;4.60;;;;;;;-146.64;75.92;38689.06;5014139;28;20022;-76
2022/04/28 07:42:03;;;;;;;16.00;4.20;;;;;;;-146.64;76.03;38646.09;5012344;28;20065;-78
2022/04/28 07:44:28;;;;;;;15.97;4.57;;;;;;;-146.64;76.66;38701.34;4975822;28;20105;-78
2022/04/28 07:46:54;;;;;;;15.10;4.17;;;;;;;-146.64;81.14;38748.41;5000165;28;20045;-78
2022/04/28 07:49:21;;;;;;;15.07;5.00;;;;;;;-146.64;81.83;38785.25;4997764;28;20515;-78
2022/04/28 07:51:46;;;;;;;15.07;4.55;;;;;;;-146.64;85.95;38811.84;4997685;28;20045;-78
2022/04/28 07:54:11;;;;;;;15.53;4.80;;;;;;;-146.64;82.96;38789.34;4991357;28;20061;-78
2022/04/28 07:56:37;;;;;;;18.80;4.50;;;;;;;-146.64;82.91;38822.06;5005643;28;20030;-78
2022/04/28 07:59:03;;;;;;;15.97;4.83;;;;;;;-146.64;81.75;38801.63;4988142;28;20025;-77
2022/04/28 08:01:31;;;;;;;16.20;4.65;;;;;;;-146.64;80.88;38803.66;4998159;28;20775;-79
2022/04/28 08:03:56;;;;;;;14.82;4.32;;;;;;;-146.64;81.73;38809.78;4997288;28;20091;-77
2022/04/28 08:06:22;;;;;;;17.20;4.70;;;;;;;-146.64;81.94;38785.25;5001595;28;20033;-78
2022/04/28 08:08:48;;;;;;;14.23;5.05;;;;;;;-146.64;82.56;38817.97;5015768;28;20477;-77
2022/04/28 08:11:13;;;;;;;12.77;5.00;;;;;;;-146.64;83.73;38803.66;4988684;28;20041;-77
2022/04/28 08:13:38;;;;;;;19.77;4.73;;;;;;;-146.64;81.03;38805.69;5002749;28;20053;-76
2022/04/28 08:16:04;;;;;;;13.63;4.23;;;;;;;-146.64;81.42;38813.88;5011664;28;20088;-77
2022/04/28 08:18:30;;;;;;;13.40;4.07;;;;;;;-146.64;80.19;38797.53;4989938;28;20092;-77
2022/04/28 08:20:55;;;;;;;15.80;3.90;;;;;;;-146.64;78.75;38815.94;4994403;28;20107;-78
2022/04/28 08:23:21;;;;;;;13.77;3.80;;;;;;;-146.64;79.33;38783.19;4981940;28;20053;-78
2022/04/28 08:25:46;;;;;;;22.37;4.70;;;;;;;-146.64;77.31;38799.56;5007868;28;20049;-78
2022/04/28 08:28:12;;;;;;;8.50;5.13;;;;;;;-146.64;79.18;38817.97;5014736;28;20028;-77
2022/04/28 08:30:37;;;;;;;10.33;3.90;;;;;;;-146.64;80.42;38756.59;5005816;28;20122;-76
2022/04/28 08:33:04;;;;;;;14.07;4.47;;;;;;;-146.64;80.69;38777.06;5013324;28;20552;-76
2022/04/28 08:35:29;;;;;;;18.35;5.07;;;;;;;-146.64;80.34;38811.84;5011522;28;20033;-76
2022/04/28 08:37:55;;;;;;;16.07;4.30;;;;;;;-146.64;79.25;38777.06;5029014;28;20194;-77
2022/04/28 08:40:21;;;;;;;12.57;4.07;;;;;;;-146.64;78.78;38723.84;5011969;28;20021;-77
2022/04/28 08:42:47;;;;;;;10.37;4.10;;;;;;;-146.64;76.14;38732.03;5019841;28;20057;-79
2022/04/28 08:45:17;;;;;;;19.52;4.60;;;;;;;-146.64;76.83;38740.22;5000467;28;20182;-78
2022/04/28 08:47:44;;;;;;;12.38;4.13;;;;;;;-146.64;73.25;38758.63;5026059;28;20481;-78
2022/04/28 08:50:09;;;;;;;13.70;4.05;;;;;;;-146.64;74.70;38748.41;5008883;28;20489;-78
2022/04/28 08:52:36;;;;;;;20.00;4.63;;;;;;;-146.64;74.33;38721.81;4984586;28;20054;-79
2022/04/28 08:55:02;;;;;;;13.43;3.88;;;;;;;-146.64;73.36;38750.44;4985603;28;20414;-79
2022/04/28 08:57:28;;;;;;;11.75;3.72;;;;;;;-146.64;75.54;38760.69;4988662;28;20512;-79
2022/04/28 08:59:55;;;;;;;14.35;3.63;;;;;;;-146.64;72.47;38707.47;5011895;28;20366;-79
2022/04/28 09:02:29;;;;;;;10.95;3.92;;;;;;;-146.64;72.60;38687.03;4994961;28;20033;-78
2022/04/28 09:05:02;;;;;;;12.57;3.70;;;;;;;-146.64;72.25;38678.84;4996043;28;20049;-78
2022/04/28 09:07:35;;;;;;;18.33;4.40;;;;;;;-146.64;72.63;38711.56;5011525;28;20037;-77
2022/04/28 09:10:24;;;;;;;21.33;4.45;;;;;;;-146.64;71.96;38695.19;5012239;28;20081;-79
2022/04/28 09:15:56;;;;;;;13.15;4.30;;;;;;;-146.64;68.21;38580.63;4999008;28;20033;-78
2022/04/28 09:18:26;;;;;;;10.82;3.40;;;;;;;-146.64;68.45;38607.22;4976561;28;20046;-79
2022/04/28 09:20:51;;;;;;;16.88;4.22;;;;;;;-146.64;66.89;38558.09;5011449;28;20034;-78
2022/04/28 09:23:18;;;;;;;10.13;3.67;;;;;;;-146.64;67.13;38592.88;5010839;28;20038;-79
2022/04/28 09:25:44;;;;;;;13.98;3.90;;;;;;;-146.64;69.01;38560.16;5011962;28;20029;-79
2022/04/28 09:28:10;;;;;;;12.13;4.60;;;;;;;-146.64;66.92;38607.22;4992874;28;20045;-78
2022/04/28 09:30:40;;;;;;;13.55;4.60;;;;;;;-146.64;68.30;38613.34;4992028;28;20519;-78
2022/04/28 09:33:16;;;;;;;15.93;4.15;;;;;;;-146.64;66.62;38588.81;5010326;28;20038;-77
2022/04/28 09:35:50;;;;;;;15.60;4.10;;;;;;;-146.64;66.00;38515.13;5009322;28;20037;-78
2022/04/28 09:38:16;;;;;;;11.10;3.78;;;;;;;-146.64;65.27;38551.97;4976118;28;20034;-77
2022/04/28 09:43:30;;;;;;;;;;;;;;;-146.64;63.62;38568.34;5009357;28;20037;-78
2022/04/28 09:45:56;;;;;;;15.70;4.38;;;;;;;-146.64;63.00;38470.13;4978937;28;19921;-79
2022/04/28 09:48:21;;;;;;;18.80;4.75;;;;;;;-146.64;62.85;38498.75;4998114;28;20455;-78
2022/04/28 09:50:48;;;;;;;7.67;3.83;;;;;;;-146.64;62.01;38433.28;5012135;28;20033;-79
2022/04/28 09:53:15;;;;;;;11.73;4.93;;;;;;;-146.64;61.83;38539.69;5028561;28;20073;-79
2022/04/28 09:55:42;;;;;;;18.77;5.05;;;;;;;-146.64;62.13;38463.97;5030082;28;20041;-79
2022/04/28 09:58:09;;;;;;;16.95;4.95;;;;;;;-146.64;61.93;38461.94;5028614;28;20113;-78
2022/04/28 10:00:34;;;;;;;;;;;;;;;-146.64;60.61;38523.31;5012057;28;20124;-78
2022/04/28 10:03:02;;;;;;;10.93;5.10;;;;;;;-146.64;60.85;38504.91;5013052;28;19960;-78
2022/04/28 10:05:28;;;;;;;13.65;4.93;;;;;;;-146.64;59.86;38457.84;5020035;28;20030;-78
2022/04/28 10:07:53;;;;;;;17.93;4.40;;;;;;;-146.64;59.66;38474.22;4992608;28;20477;-78
2022/04/28 10:10:19;;;;;;;12.77;4.67;;;;;;;-146.64;59.98;38486.50;4992021;28;20382;-78
2022/04/28 10:12:47;;;;;;;12.87;4.67;;;;;;;-146.64;60.51;38400.56;4992695;28;20081;-79
2022/04/28 10:15:13;;;;;;;11.82;5.35;;;;;;;-146.64;58.21;38480.34;4992820;28;20080;-79
2022/04/28 10:17:46;;;;;;;10.38;4.90;;;;;;;-146.64;59.89;38515.13;5008942;28;20030;-78
2022/04/28 10:20:15;;;;;;;14.07;5.60;;;;;;;-146.64;58.71;38523.31;4992006;28;20030;-78
2022/04/28 10:22:41;;;;;;;11.30;5.22;;;;;;;-146.64;57.83;38506.94;5002764;28;20025;-78
2022/04/28 10:33:38;;;;;;;13.93;5.13;;;;;;;-146.64;58.19;38478.31;5030035;28;20028;-80
2022/04/28 10:36:04;;;;;;;14.65;5.38;;;;;;;-146.64;57.89;38410.78;5011427;28;20094;-77
2022/04/28 10:38:36;;;;;;;14.40;5.65;;;;;;;-146.64;58.35;38416.91;5031998;28;20025;-79
2022/04/28 10:41:07;;;;;;;15.63;5.68;;;;;;;-146.64;57.86;38359.63;5011409;28;20053;-77
2022/04/28 10:43:32;;;;;;;16.20;6.13;;;;;;;-146.64;57.32;38384.19;5012603;28;20480;-79
2022/04/28 10:46:07;;;;;;;9.47;5.10;;;;;;;-146.64;57.55;38365.78;5008997;28;20075;-77
2022/04/28 10:48:42;;;;;;;14.13;5.70;;;;;;;-146.64;57.48;38367.81;5021378;28;20067;-78
2022/04/28 10:51:10;;;;;;;17.02;4.68;;;;;;;-146.64;58.23;38337.13;5010555;28;20025;-77
2022/04/28 10:53:58;;;;;;;13.50;5.30;;;;;;;-146.64;56.11;38298.25;5007810;28;20036;-79
2022/04/28 10:56:25;;;;;;;15.80;5.95;;;;;;;-146.64;57.31;38290.06;4995620;28;20493;-78
2022/04/28 10:58:52;;;;;;;;;;;;;;;-146.64;56.85;38277.78;4979073;28;20033;-79
2022/04/28 11:01:34;;;;;;;18.05;5.30;;;;;;;-146.64;55.60;38195.94;5010235;28;19961;-78
2022/04/28 11:04:02;;;;;;;14.85;5.03;;;;;;;-146.64;55.31;38255.28;5009231;28;20141;-77
2022/04/28 11:06:37;;;;;;;12.63;5.22;;;;;;;-146.64;54.88;38314.63;4997934;28;20477;-79
2022/04/28 11:09:04;;;;;;;14.07;5.03;;;;;;;-146.64;56.36;38236.88;4998597;28;20112;-77
2022/04/28 11:11:42;;;;;;;13.60;5.65;;;;;;;-146.64;54.31;38228.69;4996380;28;20026;-78
2022/04/28 11:14:08;;;;;;;15.35;5.38;;;;;;;-146.64;54.76;38265.50;5017626;28;20109;-78
2022/04/28 11:16:34;;;;;;;13.13;5.30;;;;;;;-146.64;54.82;38351.44;4994309;28;20049;-78
2022/04/28 11:18:59;;;;;;;13.70;5.40;;;;;;;-146.64;53.79;38238.91;4994557;28;20374;-77
2022/04/28 11:21:25;;;;;;;16.53;6.17;;;;;;;-146.64;53.13;38261.41;4977643;28;20408;-78
2022/04/28 11:23:51;;;;;;;12.77;5.60;;;;;;;-146.64;53.15;38249.13;5008374;28;20516;-78
2022/04/28 11:26:18;;;;;;;12.13;5.72;;;;;;;-146.64;52.88;38314.63;4977508;28;20396;-78
2022/04/28 11:28:43;;;;;;;10.52;5.45;;;;;;;-146.64;52.49;38265.50;4994263;28;20030;-78
2022/04/28 11:31:15;;;;;;;11.13;6.00;;;;;;;-146.64;53.62;38224.59;5015616;28;20049;-77
2022/04/28 11:33:42;;;;;;;12.95;5.30;;;;;;;-146.64;51.79;38126.38;4988969;28;20065;-77